Time;durP1;ratioP1;P1;durP2;ratioP2;P2;SDS_P1;SDS_P2;PMS_P1;PMS_P2;Temp;Humidity;BMP_temperature;BMP_pressure;BME280_temperature;BME280_humidity;BME280_pressure;Samples;Min_cycle;Max_cycle;Signal;HPM_P1;HPM_P2
2023/12/05 00:01:07;;;;;;;14.75;8.65;;;0.90;99.90;;;;;;5015314;28;20387;-85
2023/12/05 00:03:35;;;;;;;16.65;10.13;;;0.80;99.90;;;;;;4997794;28;20128;-84
2023/12/05 00:06:00;;;;;;;16.27;9.00;;;0.00;99.90;;;;;;5015523;28;20125;-85
2023/12/05 00:08:26;;;;;;;17.55;9.65;;;-0.10;99.90;;;;;;4981998;28;20125;-84
2023/12/05 00:10:52;;;;;;;16.27;9.20;;;0.60;99.90;;;;;;4994329;28;20046;-84
2023/12/05 00:13:18;;;;;;;14.45;8.10;;;-0.10;99.90;;;;;;4995645;28;20093;-84
2023/12/05 00:15:43;;;;;;;17.90;9.23;;;0.10;99.90;;;;;;4994605;28;20050;-84
2023/12/05 00:18:09;;;;;;;18.70;9.60;;;-0.10;99.90;;;;;;5001293;28;20396;-84
2023/12/05 00:20:35;;;;;;;14.75;8.73;;;-0.10;99.90;;;;;;4995951;28;20052;-84
2023/12/05 00:23:01;;;;;;;17.88;9.65;;;0.00;99.90;;;;;;5014486;28;20093;-84
2023/12/05 00:25:26;;;;;;;18.98;9.15;;;0.30;99.90;;;;;;4996817;28;20584;-84
2023/12/05 00:27:52;;;;;;;17.00;8.70;;;0.70;99.90;;;;;;4981372;28;20108;-84
2023/12/05 00:30:18;;;;;;;18.70;10.65;;;-0.10;99.90;;;;;;4981286;28;20042;-84
2023/12/05 00:32:43;;;;;;;19.08;10.07;;;1.30;99.90;;;;;;4996426;28;20087;-84
2023/12/05 00:35:09;;;;;;;17.98;9.82;;;-0.10;99.90;;;;;;5015169;28;20049;-84
2023/12/05 00:37:35;;;;;;;16.25;10.38;;;0.50;99.90;;;;;;4997421;28;20573;-84
2023/12/05 00:40:00;;;;;;;19.17;11.63;;;0.00;99.90;;;;;;4997382;28;20041;-84
2023/12/05 00:42:26;;;;;;;19.85;10.88;;;0.60;99.90;;;;;;4980530;28;20505;-85
2023/12/05 00:44:52;;;;;;;21.00;10.65;;;-0.20;99.90;;;;;;4996885;28;20398;-84
2023/12/05 00:47:17;;;;;;;17.77;10.68;;;0.50;99.90;;;;;;5014553;28;20398;-86
2023/12/05 00:49:43;;;;;;;20.30;10.98;;;0.80;99.90;;;;;;4997426;28;20387;-85
2023/12/05 00:52:09;;;;;;;18.83;11.25;;;-0.20;99.90;;;;;;4997435;28;20049;-89
2023/12/05 00:54:34;;;;;;;18.33;10.77;;;0.10;99.90;;;;;;4997157;28;20050;-85
2023/12/05 00:57:00;;;;;;;20.67;12.05;;;-0.20;99.90;;;;;;4980760;28;20112;-84
2023/12/05 00:59:25;;;;;;;19.90;11.95;;;0.20;99.90;;;;;;4996734;28;20081;-84
2023/12/05 01:01:51;;;;;;;19.80;10.95;;;-0.30;99.90;;;;;;4981067;28;20042;-85
2023/12/05 01:04:17;;;;;;;21.25;11.13;;;-0.20;99.90;;;;;;4993130;28;20054;-84
2023/12/05 01:06:43;;;;;;;25.55;13.07;;;-0.10;99.90;;;;;;4994851;28;20084;-84
2023/12/05 01:09:10;;;;;;;20.05;12.40;;;-0.20;99.90;;;;;;4993689;28;20078;-86
2023/12/05 01:11:36;;;;;;;21.20;12.48;;;-0.20;99.90;;;;;;4993463;28;20046;-84
2023/12/05 01:14:02;;;;;;;21.92;12.13;;;-0.20;99.90;;;;;;4995988;28;20042;-84
2023/12/05 01:16:27;;;;;;;23.63;12.65;;;-0.20;99.90;;;;;;5012415;28;20046;-84
2023/12/05 01:18:53;;;;;;;25.80;12.80;;;-0.20;99.90;;;;;;4996623;28;20406;-84
2023/12/05 01:21:19;;;;;;;23.48;13.20;;;0.40;99.90;;;;;;4996659;28;20049;-84
2023/12/05 01:23:44;;;;;;;23.38;12.95;;;-0.20;99.90;;;;;;4996449;28;20041;-85
2023/12/05 01:26:10;;;;;;;23.13;13.65;;;-0.10;99.90;;;;;;4978819;28;20439;-84
2023/12/05 01:28:36;;;;;;;24.95;13.77;;;-0.20;99.90;;;;;;4995093;28;20053;-84
2023/12/05 01:31:02;;;;;;;24.55;13.50;;;-0.20;99.90;;;;;;4980144;28;20395;-84
2023/12/05 01:33:28;;;;;;;25.08;14.18;;;-0.10;99.90;;;;;;5013535;28;20116;-84
2023/12/05 01:35:54;;;;;;;22.80;12.55;;;0.70;99.90;;;;;;5011029;28;20575;-85
2023/12/05 01:38:19;;;;;;;25.45;14.68;;;-0.20;99.90;;;;;;4992599;28;20039;-85
2023/12/05 01:40:45;;;;;;;23.85;12.68;;;0.00;99.90;;;;;;4992888;28;20073;-85
2023/12/05 01:43:11;;;;;;;22.10;13.20;;;-0.20;99.90;;;;;;4976540;28;20038;-84
2023/12/05 01:45:37;;;;;;;24.55;13.20;;;-0.20;99.90;;;;;;4993028;28;20048;-84
2023/12/05 01:48:05;;;;;;;22.20;12.02;;;0.90;99.90;;;;;;4979175;28;20048;-84
2023/12/05 01:50:31;;;;;;;21.25;12.93;;;-0.20;99.90;;;;;;5013588;28;20048;-84
2023/12/05 01:53:02;;;;;;;23.38;14.02;;;-0.20;99.90;;;;;;4996097;28;20422;-84
2023/12/05 01:55:29;;;;;;;20.63;12.38;;;0.40;99.90;;;;;;4995388;28;20042;-85
2023/12/05 01:57:56;;;;;;;22.58;12.70;;;-0.20;99.90;;;;;;4979958;28;20124;-84
2023/12/05 02:00:23;;;;;;;25.10;14.00;;;-0.40;99.90;;;;;;4996079;28;20502;-84
2023/12/05 02:02:49;;;;;;;22.92;12.77;;;-0.20;99.90;;;;;;4995712;28;20042;-84
2023/12/05 02:05:15;;;;;;;24.17;13.18;;;0.40;99.90;;;;;;4975817;28;20052;-85
2023/12/05 02:07:41;;;;;;;24.88;13.50;;;-0.30;99.90;;;;;;4996603;28;20406;-85
2023/12/05 02:10:09;;;;;;;28.25;13.85;;;-0.20;99.90;;;;;;5013411;28;20050;-84
2023/12/05 02:12:38;;;;;;;22.08;13.43;;;-0.20;99.90;;;;;;4995738;28;20048;-84
2023/12/05 02:15:05;;;;;;;22.73;12.52;;;0.70;99.90;;;;;;4994836;28;20088;-84
2023/12/05 02:17:52;;;;;;;23.77;13.65;;;-0.20;99.90;;;;;;4995346;28;20046;-84
2023/12/05 02:20:23;;;;;;;22.85;13.25;;;-0.20;99.90;;;;;;4995115;28;20056;-83
2023/12/05 02:23:29;;;;;;;21.67;14.55;;;-0.20;99.90;;;;;;4995370;28;20045;-84
2023/12/05 02:26:09;;;;;;;25.42;14.07;;;-0.20;99.90;;;;;;5002166;28;20062;-85
2023/12/05 02:28:36;;;;;;;23.50;13.88;;;-0.20;99.90;;;;;;4970672;28;20073;-84
2023/12/05 02:31:02;;;;;;;22.73;13.00;;;0.60;99.90;;;;;;4993087;28;20035;-84
2023/12/05 02:33:28;;;;;;;23.58;14.50;;;-0.10;99.90;;;;;;4975891;28;20046;-86
2023/12/05 02:36:10;;;;;;;27.65;14.38;;;0.70;99.90;;;;;;4976094;28;20038;-85
2023/12/05 02:39:01;;;;;;;28.45;14.57;;;-0.10;99.90;;;;;;4959234;28;20399;-84
2023/12/05 02:41:32;;;;;;;27.02;14.63;;;-0.10;99.90;;;;;;4898548;29;20545;-84
2023/12/05 02:44:03;;;;;;;23.48;14.57;;;0.60;99.90;;;;;;4898251;29;20490;-84
2023/12/05 02:46:29;;;;;;;23.65;14.68;;;0.40;99.90;;;;;;4913798;29;20084;-84
2023/12/05 02:48:57;;;;;;;24.00;14.63;;;-0.10;99.90;;;;;;4900821;29;20593;-84
2023/12/05 02:51:22;;;;;;;25.10;15.10;;;0.30;99.90;;;;;;4882806;29;20188;-84
2023/12/05 02:53:48;;;;;;;22.75;14.70;;;-0.40;99.90;;;;;;4904474;29;20052;-84
2023/12/05 02:56:14;;;;;;;23.90;14.95;;;-0.10;99.90;;;;;;4898284;29;20056;-84
2023/12/05 02:58:40;;;;;;;30.40;16.15;;;0.50;99.90;;;;;;4896882;29;20143;-84
2023/12/05 03:01:06;;;;;;;24.65;15.82;;;0.70;99.90;;;;;;4913968;29;20567;-84
2023/12/05 03:03:32;;;;;;;24.27;14.85;;;-0.10;99.90;;;;;;4898417;29;20036;-86
2023/12/05 03:05:57;;;;;;;25.25;15.15;;;1.40;99.90;;;;;;4914061;29;20060;-84
2023/12/05 03:08:23;;;;;;;27.73;15.95;;;-0.10;99.90;;;;;;4898000;29;20140;-84
2023/12/05 03:10:49;;;;;;;25.17;15.40;;;-0.10;99.90;;;;;;4896320;29;20045;-84
2023/12/05 03:13:14;;;;;;;26.67;15.35;;;0.80;99.90;;;;;;4879866;29;20088;-85
2023/12/05 03:15:40;;;;;;;22.73;14.02;;;1.30;99.90;;;;;;4898611;29;20164;-85
2023/12/05 03:18:05;;;;;;;27.50;15.00;;;0.50;99.90;;;;;;4919887;28;20500;-84
2023/12/05 03:20:31;;;;;;;30.50;16.98;;;0.80;99.90;;;;;;4956104;28;20154;-84
2023/12/05 03:22:57;;;;;;;25.77;15.93;;;0.20;99.90;;;;;;4956161;28;20197;-83
2023/12/05 03:25:22;;;;;;;27.70;15.90;;;0.10;99.90;;;;;;4974680;28;20419;-84
2023/12/05 03:27:48;;;;;;;26.88;15.18;;;-0.10;99.90;;;;;;5008884;28;20410;-84
2023/12/05 03:30:14;;;;;;;26.65;15.18;;;0.60;99.90;;;;;;4994567;28;20131;-84
2023/12/05 03:32:39;;;;;;;28.15;15.65;;;0.90;99.90;;;;;;4994853;28;20038;-84
2023/12/05 03:35:05;;;;;;;27.27;15.07;;;0.70;99.90;;;;;;5012197;28;20410;-85
2023/12/05 03:37:31;;;;;;;29.00;15.93;;;-0.10;99.90;;;;;;5025737;28;20042;-84
2023/12/05 03:39:57;;;;;;;25.63;15.63;;;0.80;99.90;;;;;;5012013;28;20410;-84
2023/12/05 03:42:22;;;;;;;29.38;17.05;;;-0.20;99.90;;;;;;5012369;28;20046;-88
2023/12/05 03:44:48;;;;;;;29.17;15.90;;;0.50;99.90;;;;;;4991185;28;20039;-84
2023/12/05 03:47:13;;;;;;;30.80;17.38;;;0.90;99.90;;;;;;5012182;28;20046;-85
2023/12/05 03:49:39;;;;;;;26.50;15.68;;;1.70;99.90;;;;;;5012403;28;20125;-84
2023/12/05 03:52:05;;;;;;;26.42;16.50;;;0.10;99.90;;;;;;4994231;28;20045;-84
2023/12/05 03:54:31;;;;;;;29.20;16.60;;;0.40;99.90;;;;;;5011770;28;20104;-84
2023/12/05 03:56:57;;;;;;;29.20;16.42;;;0.80;99.90;;;;;;5011228;28;20042;-86
2023/12/05 03:59:22;;;;;;;29.35;16.70;;;0.50;99.90;;;;;;4996828;28;20049;-84
2023/12/05 04:01:48;;;;;;;26.92;15.27;;;0.40;99.90;;;;;;4997957;28;20046;-84
2023/12/05 04:04:14;;;;;;;28.55;15.55;;;-0.10;99.90;;;;;;4998014;28;20072;-85
2023/12/05 04:06:39;;;;;;;26.08;15.85;;;1.20;99.90;;;;;;4993945;28;20073;-86
2023/12/05 04:09:05;;;;;;;28.77;16.70;;;0.30;99.90;;;;;;4994937;28;20042;-84
2023/12/05 04:11:32;;;;;;;30.23;16.33;;;-0.20;99.90;;;;;;4994999;28;20084;-84
2023/12/05 04:13:59;;;;;;;29.38;15.43;;;0.00;99.90;;;;;;4996127;28;20046;-83
2023/12/05 04:16:24;;;;;;;28.38;15.85;;;-0.20;99.90;;;;;;4994191;28;20046;-85
2023/12/05 04:18:51;;;;;;;26.02;14.60;;;-0.10;99.90;;;;;;4993860;28;20388;-84
2023/12/05 04:21:18;;;;;;;30.88;16.65;;;-0.10;99.90;;;;;;4997233;28;20183;-85
2023/12/05 04:23:43;;;;;;;29.45;16.85;;;1.30;99.90;;;;;;4998057;28;20576;-86
2023/12/05 04:26:16;;;;;;;28.48;15.50;;;-0.20;99.90;;;;;;5004678;28;20058;-83
2023/12/05 04:28:42;;;;;;;29.98;14.48;;;-0.20;99.90;;;;;;5008546;28;20090;-84
2023/12/05 04:31:08;;;;;;;29.23;15.32;;;0.10;99.90;;;;;;4994369;28;20089;-84
2023/12/05 04:33:33;;;;;;;26.58;15.57;;;-0.10;99.90;;;;;;4995421;28;20109;-84
2023/12/05 04:35:59;;;;;;;25.52;15.35;;;-0.20;99.90;;;;;;4995301;28;20042;-84
2023/12/05 04:38:24;;;;;;;27.95;15.40;;;0.40;99.90;;;;;;4992583;28;20129;-84
2023/12/05 04:40:50;;;;;;;27.77;15.80;;;0.00;99.90;;;;;;4974421;28;20066;-83
2023/12/05 04:43:16;;;;;;;27.40;14.25;;;0.00;99.90;;;;;;4976075;28;20039;-84
2023/12/05 04:45:42;;;;;;;24.65;13.65;;;-0.30;99.90;;;;;;4964670;28;20039;-84
2023/12/05 04:48:08;;;;;;;29.65;14.60;;;0.60;99.90;;;;;;4959936;28;20093;-85
2023/12/05 04:50:34;;;;;;;25.85;15.15;;;0.30;99.90;;;;;;4977705;28;20491;-84
2023/12/05 04:53:00;;;;;;;27.05;14.60;;;0.30;99.90;;;;;;4977518;28;20053;-84
2023/12/05 04:55:25;;;;;;;26.85;15.05;;;-0.20;99.90;;;;;;4995270;28;20403;-83
2023/12/05 04:57:51;;;;;;;25.10;14.80;;;-0.30;99.90;;;;;;4995200;28;20403;-83
2023/12/05 05:00:17;;;;;;;25.80;15.25;;;-0.80;99.90;;;;;;4976470;28;20561;-85
2023/12/05 05:02:43;;;;;;;28.55;15.27;;;-0.30;99.90;;;;;;4977263;28;20169;-83
2023/12/05 05:05:08;;;;;;;26.42;14.63;;;-0.30;99.90;;;;;;4977653;28;20054;-84
2023/12/05 05:07:34;;;;;;;27.80;15.15;;;-0.20;99.90;;;;;;4977237;28;20096;-85
2023/12/05 05:09:59;;;;;;;24.83;14.27;;;0.20;99.90;;;;;;4959883;28;20050;-83
2023/12/05 05:12:26;;;;;;;31.48;16.95;;;-0.30;99.90;;;;;;4979453;28;20562;-86
2023/12/05 05:14:51;;;;;;;25.13;14.30;;;-0.10;99.90;;;;;;4973618;28;20542;-83
2023/12/05 05:17:17;;;;;;;25.00;14.25;;;-0.30;99.90;;;;;;4960573;28;20046;-84
2023/12/05 05:19:42;;;;;;;28.08;14.68;;;-0.30;99.90;;;;;;4961096;28;20100;-84
2023/12/05 05:22:08;;;;;;;25.77;14.77;;;-0.30;99.90;;;;;;4977208;28;20052;-84
2023/12/05 05:24:34;;;;;;;24.90;14.80;;;-0.40;99.90;;;;;;4976877;28;20137;-83
2023/12/05 05:27:00;;;;;;;25.13;14.75;;;0.50;99.90;;;;;;5010974;28;20126;-84
2023/12/05 05:29:25;;;;;;;30.65;15.10;;;-0.30;99.90;;;;;;4993168;28;20046;-85
2023/12/05 05:31:51;;;;;;;27.63;15.63;;;-0.30;99.90;;;;;;4993157;28;20038;-84
2023/12/05 05:34:16;;;;;;;29.17;14.50;;;-0.30;99.90;;;;;;4994349;28;20050;-86
2023/12/05 05:36:42;;;;;;;30.33;16.90;;;-0.30;99.90;;;;;;4994528;28;20046;-84
2023/12/05 05:39:08;;;;;;;25.85;14.93;;;0.70;99.90;;;;;;4995601;28;20446;-83
2023/12/05 05:41:33;;;;;;;28.40;14.88;;;-0.30;99.90;;;;;;5011881;28;20046;-84
2023/12/05 05:43:59;;;;;;;27.83;14.82;;;0.30;99.90;;;;;;5013665;28;20046;-84
2023/12/05 05:46:25;;;;;;;26.77;14.45;;;-0.30;99.90;;;;;;4996273;28;20037;-84
2023/12/05 05:48:50;;;;;;;29.45;15.57;;;-0.30;99.90;;;;;;4978651;28;20057;-85
2023/12/05 05:51:16;;;;;;;30.90;16.50;;;0.00;99.90;;;;;;4996447;28;20037;-85
2023/12/05 05:53:42;;;;;;;27.77;15.35;;;0.00;99.90;;;;;;5013711;28;20112;-83
2023/12/05 05:56:08;;;;;;;26.65;14.68;;;0.20;99.90;;;;;;4997190;28;20506;-85
2023/12/05 05:58:34;;;;;;;29.33;15.80;;;-0.30;99.90;;;;;;5013351;28;20498;-84
2023/12/05 06:01:00;;;;;;;23.25;14.13;;;-0.50;99.90;;;;;;4994973;28;20212;-84
2023/12/05 06:03:31;;;;;;;24.83;14.70;;;-0.40;99.90;;;;;;5013142;28;20395;-84
2023/12/05 06:06:00;;;;;;;27.85;14.38;;;-0.40;99.90;;;;;;4992485;28;20050;-86
2023/12/05 06:08:25;;;;;;;23.70;13.95;;;0.30;99.90;;;;;;4992419;28;20050;-85
2023/12/05 06:10:51;;;;;;;26.67;14.00;;;0.50;99.90;;;;;;4992595;28;20372;-84
2023/12/05 06:13:17;;;;;;;24.42;14.82;;;-0.20;99.90;;;;;;4995744;28;20062;-84
2023/12/05 06:15:43;;;;;;;30.00;15.35;;;-0.30;99.90;;;;;;5013622;28;20042;-83
2023/12/05 06:18:11;;;;;;;28.92;15.73;;;0.20;99.90;;;;;;4992996;28;20054;-85
2023/12/05 06:20:36;;;;;;;29.70;15.70;;;-0.40;99.90;;;;;;4995601;28;20433;-85
2023/12/05 06:23:02;;;;;;;31.30;15.32;;;0.60;99.90;;;;;;5013109;28;20138;-84
2023/12/05 06:25:28;;;;;;;30.35;14.90;;;-0.30;99.90;;;;;;4995522;28;20487;-85
2023/12/05 06:27:53;;;;;;;26.85;15.25;;;-0.30;99.90;;;;;;4996005;28;20084;-83
2023/12/05 06:30:20;;;;;;;26.60;14.90;;;0.70;99.90;;;;;;5012676;28;20041;-85
2023/12/05 06:32:46;;;;;;;27.67;14.38;;;1.40;99.90;;;;;;4995737;28;20054;-84
2023/12/05 06:35:11;;;;;;;26.63;14.52;;;-0.40;99.90;;;;;;4979985;28;20046;-85
2023/12/05 06:37:37;;;;;;;26.25;14.45;;;0.90;99.90;;;;;;4979367;28;20055;-86
2023/12/05 06:40:03;;;;;;;26.85;15.57;;;-0.20;99.90;;;;;;4995240;28;20089;-87
2023/12/05 06:42:29;;;;;;;24.40;14.23;;;-0.30;99.90;;;;;;4995773;28;20049;-83
2023/12/05 06:44:54;;;;;;;28.52;14.50;;;-0.40;99.90;;;;;;4995497;28;20501;-84
2023/12/05 06:47:20;;;;;;;29.70;15.20;;;0.20;99.90;;;;;;4995485;28;20034;-83
2023/12/05 06:49:47;;;;;;;23.65;14.48;;;-0.40;99.90;;;;;;4994799;28;20053;-84
2023/12/05 06:52:13;;;;;;;29.25;14.90;;;-0.30;99.90;;;;;;4995232;28;20084;-84
2023/12/05 06:54:38;;;;;;;25.75;14.82;;;0.30;99.90;;;;;;4995300;28;20042;-85
2023/12/05 06:57:05;;;;;;;25.75;14.85;;;-0.40;99.90;;;;;;4979104;28;20128;-85
2023/12/05 06:59:30;;;;;;;25.15;15.20;;;0.00;99.90;;;;;;4994821;28;20090;-84
2023/12/05 07:01:56;;;;;;;29.80;15.77;;;-0.40;99.90;;;;;;4995036;28;20053;-83
2023/12/05 07:04:22;;;;;;;29.80;15.73;;;-0.30;99.90;;;;;;4979074;28;20037;-84
2023/12/05 07:14:59;;;;;;;30.65;15.65;;;-0.40;99.90;;;;;;5012263;28;20077;-85
2023/12/05 07:17:25;;;;;;;27.25;15.40;;;-0.40;99.90;;;;;;4989916;28;20553;-84
2023/12/05 07:19:50;;;;;;;29.63;15.90;;;0.00;99.90;;;;;;4992915;28;20046;-86
2023/12/05 07:22:16;;;;;;;32.95;16.33;;;0.10;99.90;;;;;;4992619;28;20077;-86
2023/12/05 07:24:43;;;;;;;28.67;16.25;;;0.20;99.90;;;;;;4995329;28;20038;-85
2023/12/05 07:27:08;;;;;;;28.95;16.02;;;-0.70;99.90;;;;;;4978424;28;20398;-85
2023/12/05 07:29:34;;;;;;;32.90;16.83;;;-1.10;99.90;;;;;;4994196;28;20050;-83
2023/12/05 07:32:00;;;;;;;27.05;15.40;;;-0.50;99.90;;;;;;4994687;28;20057;-84
2023/12/05 07:34:25;;;;;;;30.25;16.35;;;-0.40;99.90;;;;;;5014656;28;20042;-84
2023/12/05 07:36:51;;;;;;;29.08;15.95;;;-0.50;99.90;;;;;;5003212;28;20042;-85
2023/12/05 07:39:17;;;;;;;28.38;15.88;;;0.40;99.90;;;;;;5012304;28;20049;-84
2023/12/05 07:41:43;;;;;;;32.17;16.73;;;0.00;99.90;;;;;;5015594;28;20041;-85
2023/12/05 07:44:10;;;;;;;29.15;15.98;;;-1.10;99.90;;;;;;5014535;28;20120;-85
2023/12/05 07:46:36;;;;;;;28.88;16.08;;;-0.80;99.90;;;;;;4993254;28;20060;-84
2023/12/05 07:49:02;;;;;;;33.70;16.30;;;-0.40;99.90;;;;;;4998501;28;20054;-84
2023/12/05 07:51:28;;;;;;;35.58;15.82;;;-0.30;99.90;;;;;;4997566;28;20401;-85
2023/12/05 07:53:53;;;;;;;29.77;16.13;;;0.60;99.90;;;;;;4998201;28;20048;-85
2023/12/05 07:56:19;;;;;;;29.08;14.85;;;0.00;99.90;;;;;;4980848;28;21361;-84
2023/12/05 07:58:45;;;;;;;27.35;15.82;;;0.80;99.90;;;;;;4980286;28;20124;-84
2023/12/05 08:01:11;;;;;;;28.88;16.33;;;0.20;99.90;;;;;;4978885;28;20121;-84
2023/12/05 08:03:37;;;;;;;33.85;16.33;;;0.30;99.90;;;;;;4996100;28;20058;-85
2023/12/05 08:06:03;;;;;;;35.40;15.82;;;-0.40;99.90;;;;;;5007497;28;20050;-84
2023/12/05 08:08:34;;;;;;;31.02;16.42;;;-0.40;99.90;;;;;;5015631;28;20081;-86
2023/12/05 08:11:00;;;;;;;29.17;16.20;;;-1.00;99.90;;;;;;4998088;28;20054;-83
2023/12/05 08:13:26;;;;;;;33.30;16.92;;;-0.40;99.90;;;;;;5015556;28;20038;-86
2023/12/05 08:15:52;;;;;;;26.88;15.57;;;0.60;99.90;;;;;;5015232;28;20042;-85
2023/12/05 08:18:18;;;;;;;29.15;16.10;;;-0.30;99.90;;;;;;4997132;28;20112;-86
2023/12/05 08:20:44;;;;;;;27.48;14.82;;;;;;;;;;5014755;28;20046;-85
2023/12/05 08:23:10;;;;;;;26.88;15.77;;;-0.30;99.90;;;;;;4994101;28;20050;-85
2023/12/05 08:25:36;;;;;;;29.00;16.13;;;0.10;99.90;;;;;;4998741;28;20046;-85
2023/12/05 08:28:02;;;;;;;29.40;16.75;;;-0.30;99.90;;;;;;4981341;28;20136;-86
2023/12/05 08:30:27;;;;;;;26.75;15.63;;;0.30;99.90;;;;;;4981225;28;20046;-84
2023/12/05 08:32:57;;;;;;;27.08;14.73;;;-0.30;99.90;;;;;;4997160;28;20034;-85
2023/12/05 08:35:23;;;;;;;29.38;16.05;;;-0.30;99.90;;;;;;4997770;28;20486;-84
2023/12/05 08:37:48;;;;;;;26.60;15.43;;;-0.30;99.90;;;;;;4981243;28;20045;-84
2023/12/05 08:40:15;;;;;;;27.85;15.80;;;1.30;99.90;;;;;;4997210;28;20072;-84
2023/12/05 08:42:42;;;;;;;23.20;14.38;;;-0.30;99.90;;;;;;4996728;28;20054;-83
2023/12/05 08:45:11;;;;;;;24.67;13.98;;;-1.10;99.90;;;;;;4996771;28;20172;-85
2023/12/05 08:47:38;;;;;;;25.33;14.70;;;0.30;99.90;;;;;;4997510;28;20073;-85
2023/12/05 08:50:05;;;;;;;27.60;14.55;;;-0.30;99.90;;;;;;4997132;28;20046;-83
2023/12/05 08:52:30;;;;;;;25.65;15.23;;;-0.20;99.90;;;;;;4996885;28;20395;-85
2023/12/05 08:54:56;;;;;;;27.92;16.10;;;-0.30;99.90;;;;;;4996639;28;20041;-84
2023/12/05 08:57:22;;;;;;;26.75;15.30;;;-0.20;99.90;;;;;;5014828;28;20120;-83
2023/12/05 08:59:48;;;;;;;27.15;15.75;;;0.30;99.90;;;;;;4996577;28;20438;-83
2023/12/05 09:02:14;;;;;;;28.23;15.32;;;-0.20;99.90;;;;;;4971112;28;20042;-83
2023/12/05 09:04:39;;;;;;;25.67;14.77;;;-0.20;99.90;;;;;;4981001;28;20096;-85
2023/12/05 09:07:06;;;;;;;24.38;14.32;;;0.00;99.90;;;;;;4995455;28;20514;-85
2023/12/05 09:09:32;;;;;;;26.48;14.52;;;0.80;99.90;;;;;;4994100;28;20442;-86
2023/12/05 09:12:01;;;;;;;25.45;14.95;;;-0.70;99.90;;;;;;4993564;28;20145;-84
2023/12/05 09:14:26;;;;;;;25.45;14.23;;;-0.30;99.90;;;;;;4980432;28;20153;-84
2023/12/05 09:16:52;;;;;;;26.20;14.38;;;0.10;99.90;;;;;;4996300;28;20104;-84
2023/12/05 09:19:18;;;;;;;24.75;14.57;;;-0.10;99.90;;;;;;4996516;28;20050;-85
2023/12/05 09:21:44;;;;;;;25.77;14.55;;;-0.10;99.90;;;;;;4980403;28;20046;-87
2023/12/05 09:24:09;;;;;;;25.23;14.75;;;0.90;99.90;;;;;;4979254;28;20056;-85
2023/12/05 09:26:35;;;;;;;25.00;14.50;;;0.40;99.90;;;;;;5014020;28;20495;-85
2023/12/05 09:29:01;;;;;;;24.15;14.32;;;-0.10;99.90;;;;;;4996520;28;20075;-85
2023/12/05 09:31:27;;;;;;;28.48;15.45;;;0.00;99.90;;;;;;4996017;28;20066;-85
2023/12/05 09:33:53;;;;;;;26.15;15.02;;;-0.70;99.90;;;;;;4996383;28;20045;-86
2023/12/05 09:36:18;;;;;;;28.73;15.15;;;0.40;99.90;;;;;;4996326;28;20050;-86
2023/12/05 09:38:44;;;;;;;23.70;15.15;;;0.80;99.90;;;;;;4995929;28;20042;-85
2023/12/05 09:41:12;;;;;;;26.23;14.77;;;0.90;99.90;;;;;;4995420;28;20521;-86
2023/12/05 09:43:39;;;;;;;26.73;14.30;;;1.00;99.90;;;;;;4994814;28;20054;-88
2023/12/05 09:46:08;;;;;;;26.17;15.65;;;0.80;99.90;;;;;;4996647;28;20081;-87
2023/12/05 09:48:58;;;;;;;25.05;15.15;;;0.00;99.90;;;;;;4996464;28;20050;-85
2023/12/05 09:51:24;;;;;;;25.42;14.57;;;0.20;99.90;;;;;;4996389;28;20394;-85
2023/12/05 09:53:53;;;;;;;25.17;14.55;;;0.90;99.90;;;;;;4996417;28;20184;-85
2023/12/05 09:56:21;;;;;;;25.00;14.73;;;0.60;99.90;;;;;;4995129;28;20076;-86
2023/12/05 09:58:47;;;;;;;25.50;14.60;;;0.10;99.90;;;;;;4995599;28;20125;-86
2023/12/05 10:01:16;;;;;;;28.73;14.98;;;0.20;99.90;;;;;;4979894;28;20038;-85
2023/12/05 10:03:43;;;;;;;26.67;15.27;;;1.10;99.90;;;;;;4980056;28;20037;-84
2023/12/05 10:06:11;;;;;;;24.40;14.55;;;0.00;99.90;;;;;;4994888;28;20113;-85
2023/12/05 10:08:37;;;;;;;25.08;15.07;;;0.20;99.90;;;;;;4996053;28;20038;-85
2023/12/05 10:11:04;;;;;;;28.63;15.32;;;0.20;99.90;;;;;;4995589;28;20076;-85
2023/12/05 10:13:31;;;;;;;29.15;16.35;;;1.10;99.90;;;;;;4996036;28;20420;-84
2023/12/05 10:16:00;;;;;;;25.50;15.15;;;1.40;99.90;;;;;;4995122;28;20494;-85
2023/12/05 10:18:30;;;;;;;25.42;15.45;;;0.30;99.90;;;;;;4995513;28;20107;-84
2023/12/05 10:20:56;;;;;;;29.20;16.30;;;0.70;99.90;;;;;;5012675;28;20052;-84
2023/12/05 10:23:22;;;;;;;25.60;15.98;;;0.80;99.90;;;;;;4995601;28;20557;-84
2023/12/05 10:25:48;;;;;;;28.67;15.95;;;0.30;99.90;;;;;;4995269;28;20061;-84
2023/12/05 10:28:13;;;;;;;28.23;15.88;;;1.80;99.90;;;;;;4979304;28;20052;-85
2023/12/05 10:30:39;;;;;;;28.17;15.65;;;0.20;99.90;;;;;;4995819;28;20092;-85
2023/12/05 10:33:13;;;;;;;27.65;16.50;;;0.80;99.90;;;;;;4995480;28;20137;-85
2023/12/05 10:35:41;;;;;;;28.73;16.85;;;0.30;99.90;;;;;;4994888;28;20125;-84
2023/12/05 10:38:17;;;;;;;31.02;17.42;;;0.40;99.90;;;;;;4995477;28;20154;-85
2023/12/05 10:40:57;;;;;;;29.80;16.30;;;1.00;99.90;;;;;;4995222;28;20042;-85
2023/12/05 10:43:24;;;;;;;28.65;17.02;;;0.50;99.90;;;;;;5012756;28;20124;-86
2023/12/05 10:45:50;;;;;;;29.88;16.33;;;0.30;99.90;;;;;;4995115;28;20054;-85
2023/12/05 10:48:17;;;;;;;29.52;16.02;;;0.40;99.90;;;;;;4995063;28;20499;-86
2023/12/05 10:50:45;;;;;;;30.17;16.48;;;0.30;99.90;;;;;;5012705;28;20089;-85
2023/12/05 10:53:12;;;;;;;30.20;16.13;;;1.00;99.90;;;;;;4995339;28;20041;-86
2023/12/05 10:55:38;;;;;;;32.55;17.38;;;0.30;99.90;;;;;;4994581;28;20399;-87
2023/12/05 10:58:04;;;;;;;30.92;17.05;;;1.40;99.90;;;;;;5012638;28;20038;-85
2023/12/05 11:00:31;;;;;;;31.35;17.25;;;0.30;99.90;;;;;;4994837;28;20050;-85
2023/12/05 11:02:57;;;;;;;30.20;16.70;;;0.50;99.90;;;;;;4994926;28;20092;-86
2023/12/05 11:05:23;;;;;;;29.45;16.30;;;0.40;99.90;;;;;;4994834;28;20462;-85
2023/12/05 11:07:51;;;;;;;32.38;18.70;;;0.30;99.90;;;;;;5011338;28;20045;-85
2023/12/05 11:10:17;;;;;;;29.50;15.93;;;0.20;99.90;;;;;;5012429;28;20597;-84
2023/12/05 11:12:46;;;;;;;31.23;16.70;;;1.00;99.90;;;;;;5016817;28;20089;-85
2023/12/05 11:15:15;;;;;;;30.35;18.27;;;0.30;99.90;;;;;;4998652;28;20120;-86
2023/12/05 11:17:48;;;;;;;28.50;16.83;;;0.60;99.90;;;;;;4998977;28;20096;-86
2023/12/05 11:20:22;;;;;;;31.00;17.10;;;1.30;99.90;;;;;;4982492;28;20050;-86
2023/12/05 11:23:01;;;;;;;32.35;17.25;;;1.10;99.90;;;;;;5016222;28;20053;-86
2023/12/05 11:25:41;;;;;;;31.90;17.77;;;0.20;99.90;;;;;;4997745;28;20565;-85
2023/12/05 11:28:19;;;;;;;32.05;18.88;;;-0.30;99.90;;;;;;4995269;28;20431;-86
2023/12/05 11:31:32;;;;;;;33.30;17.33;;;0.20;99.90;;;;;;4975345;28;20117;-85
2023/12/05 11:34:12;;;;;;;31.48;17.70;;;0.20;99.90;;;;;;4901533;29;20078;-87
2023/12/05 11:37:07;;;;;;;33.67;18.73;;;0.20;99.90;;;;;;4917647;29;20059;-84
2023/12/05 11:39:33;;;;;;;29.27;17.25;;;0.20;99.90;;;;;;4901667;29;20191;-83
2023/12/05 11:42:10;;;;;;;33.03;17.20;;;0.40;99.90;;;;;;4902028;29;20096;-84
2023/12/05 11:44:37;;;;;;;31.77;17.08;;;0.20;99.90;;;;;;4901864;29;20365;-83
2023/12/05 11:47:04;;;;;;;34.88;19.05;;;0.20;99.90;;;;;;4901743;29;20063;-84
2023/12/05 11:49:49;;;;;;;32.25;18.25;;;0.10;99.90;;;;;;4901323;29;20409;-85
2023/12/05 11:52:17;;;;;;;34.58;18.90;;;0.20;99.90;;;;;;4917443;29;20131;-84
2023/12/05 11:54:45;;;;;;;31.50;18.65;;;1.40;99.90;;;;;;4885862;29;20142;-84
2023/12/05 11:57:13;;;;;;;33.08;18.10;;;0.90;99.90;;;;;;4917278;29;20055;-83
2023/12/05 11:59:43;;;;;;;35.13;18.27;;;0.20;99.90;;;;;;4901402;29;20199;-84
2023/12/05 12:02:13;;;;;;;34.25;18.27;;;1.10;99.90;;;;;;4917258;29;20040;-85
2023/12/05 12:04:39;;;;;;;32.35;19.02;;;0.80;99.90;;;;;;4936673;28;20054;-83
2023/12/05 12:07:05;;;;;;;32.38;18.95;;;1.30;99.90;;;;;;4982031;28;20391;-85
2023/12/05 12:09:39;;;;;;;34.53;19.02;;;0.10;99.90;;;;;;4975201;28;20047;-84
2023/12/05 12:12:05;;;;;;;29.40;17.30;;;0.50;99.90;;;;;;4976627;28;20074;-83
2023/12/05 12:14:31;;;;;;;30.00;17.20;;;0.30;99.90;;;;;;4976670;28;20038;-84
2023/12/05 12:16:59;;;;;;;30.98;18.02;;;1.30;99.90;;;;;;4976310;28;20138;-85
2023/12/05 12:19:25;;;;;;;33.05;19.08;;;0.20;99.90;;;;;;4989895;28;20069;-84
2023/12/05 12:21:51;;;;;;;32.58;18.42;;;0.20;99.90;;;;;;4978345;28;20046;-84
2023/12/05 12:24:22;;;;;;;37.65;19.75;;;0.20;99.90;;;;;;4961594;28;20092;-84
2023/12/05 12:26:55;;;;;;;32.08;16.88;;;0.20;99.90;;;;;;5004968;28;20561;-85
2023/12/05 12:29:21;;;;;;;33.05;18.92;;;0.80;99.90;;;;;;4997926;28;20430;-86
2023/12/05 12:31:49;;;;;;;34.78;18.83;;;1.00;99.90;;;;;;4997680;28;20124;-84
2023/12/05 12:34:26;;;;;;;31.90;17.77;;;1.50;99.90;;;;;;5015136;28;20053;-83
2023/12/05 12:36:53;;;;;;;36.80;18.98;;;0.20;99.90;;;;;;4997498;28;20129;-83
2023/12/05 12:39:19;;;;;;;34.88;19.33;;;0.30;99.90;;;;;;4981668;28;20497;-83
2023/12/05 12:41:46;;;;;;;35.45;19.58;;;1.00;99.90;;;;;;5014790;28;20046;-84